Terminal Aerodrome Forecast
Issued by NWS

Home | Current Version | Previous Version | Graphics & Text | Print | Product List | Glossary On
Versions: 1 2 3 4 5 6 7 8 9 10 11 12 13 14 15
000
FTUS45 KGGW 191720
TAFSDY
TAF
KSDY 191720Z 1918/2018 11009KT P6SM SCT010 SCT045
      TEMPO 1918/1920 BKN010
     FM200900 VRB04KT P6SM BKN025
     FM201500 12006KT P6SM SCT025=

USA.gov is the U.S. government's official web portal to all federal, state and local government web resources and services.